Tri Cities Airport Pasco US
ICAO: KPSC
IATA: PSC
Category: Medium
Scheduled Services: Yes

Elevation: 410 ft
TransAlt. 18000 ft.

Airport Communications:
CHINOOK APP/DEP:128.75
ATIS:125.65
CLNC DEL:120
CTAF:135.3
GND:121.8
SEATTLE RDO:122.4
TWR:135.3
UNICOM:122.95

KPSC Zoom In..

If Map Doesn't Load, Click Here

Runways:

(A) RW 03L length 7711 ft width 150 ft
---- / hdg 30

(B) RW 03R length 4423 ft width 75 ft
---- / hdg 30

(C) RW 12 length 7703 ft width 150 ft
---- / hdg 119

(D) RW 21L length 4423 ft width 75 ft
---- / hdg 210

(E) RW 21R length 7711 ft width 150 ft
ILS 108.70 / hdg 210

(F) RW 30 length 7703 ft width 150 ft
---- / hdg 299

Location; KPSC
Day. 26 / Time. 09.53 Zulu
* Altimeter: 30.22
* Temperature: 06° c. 42.8°f.
* Wind from: 000° Speed 00 kn.
Dewpoint: 04° c.
Visibility: 4 Statute Miles.
Clouds: Clear (automated report).
Conditions: Mist.

KPSC 260953Z AUTO 00000KT 4SM BR CLR 06/04 A3022 RMK AO2 SLP232 T00610044


Wind - Calm.

 
 
jpsmedia.com for Web Design worldairports.se 2018   terms of use